sensor_id;sensor_type;location;lat;lon;timestamp;P1;durP1;ratioP1;P2;durP2;ratioP2
54271;SDS011;40184;53.362;5.216;2023-04-15T00:01:20;14.98;;;4.32;;
54271;SDS011;40184;53.362;5.216;2023-04-15T00:03:46;9.80;;;4.05;;
54271;SDS011;40184;53.362;5.216;2023-04-15T00:06:16;11.77;;;3.67;;
54271;SDS011;40184;53.362;5.216;2023-04-15T00:08:43;11.52;;;3.88;;
54271;SDS011;40184;53.362;5.216;2023-04-15T00:11:09;17.15;;;4.40;;
54271;SDS011;40184;53.362;5.216;2023-04-15T00:13:36;9.63;;;3.75;;
54271;SDS011;40184;53.362;5.216;2023-04-15T00:16:03;15.23;;;4.35;;
54271;SDS011;40184;53.362;5.216;2023-04-15T00:18:30;13.60;;;4.18;;
54271;SDS011;40184;53.362;5.216;2023-04-15T00:20:56;11.63;;;4.97;;
54271;SDS011;40184;53.362;5.216;2023-04-15T00:23:23;14.27;;;3.83;;
54271;SDS011;40184;53.362;5.216;2023-04-15T00:25:48;13.85;;;4.75;;
54271;SDS011;40184;53.362;5.216;2023-04-15T00:28:15;15.07;;;4.85;;
54271;SDS011;40184;53.362;5.216;2023-04-15T00:30:41;15.40;;;4.85;;
54271;SDS011;40184;53.362;5.216;2023-04-15T00:33:07;17.08;;;4.97;;
54271;SDS011;40184;53.362;5.216;2023-04-15T00:35:33;12.00;;;4.53;;
54271;SDS011;40184;53.362;5.216;2023-04-15T00:37:59;9.07;;;4.63;;
54271;SDS011;40184;53.362;5.216;2023-04-15T00:40:25;13.85;;;4.82;;
54271;SDS011;40184;53.362;5.216;2023-04-15T00:42:51;16.85;;;5.78;;
54271;SDS011;40184;53.362;5.216;2023-04-15T00:45:18;11.07;;;5.72;;
54271;SDS011;40184;53.362;5.216;2023-04-15T00:47:44;18.13;;;6.93;;
54271;SDS011;40184;53.362;5.216;2023-04-15T00:50:10;13.07;;;6.20;;
54271;SDS011;40184;53.362;5.216;2023-04-15T00:52:37;17.85;;;6.18;;
54271;SDS011;40184;53.362;5.216;2023-04-15T00:55:03;10.00;;;5.65;;
54271;SDS011;40184;53.362;5.216;2023-04-15T00:57:30;16.48;;;6.72;;
54271;SDS011;40184;53.362;5.216;2023-04-15T00:59:56;13.73;;;5.93;;
54271;SDS011;40184;53.362;5.216;2023-04-15T01:02:22;15.18;;;6.18;;
54271;SDS011;40184;53.362;5.216;2023-04-15T01:04:48;12.93;;;6.05;;
54271;SDS011;40184;53.362;5.216;2023-04-15T01:07:14;14.15;;;6.55;;
54271;SDS011;40184;53.362;5.216;2023-04-15T01:09:40;10.60;;;5.82;;
54271;SDS011;40184;53.362;5.216;2023-04-15T01:12:06;10.60;;;6.03;;
54271;SDS011;40184;53.362;5.216;2023-04-15T01:14:36;15.80;;;6.28;;
54271;SDS011;40184;53.362;5.216;2023-04-15T01:17:01;13.68;;;6.68;;
54271;SDS011;40184;53.362;5.216;2023-04-15T01:19:27;15.02;;;6.10;;
54271;SDS011;40184;53.362;5.216;2023-04-15T01:21:53;17.00;;;7.10;;
54271;SDS011;40184;53.362;5.216;2023-04-15T01:24:19;14.52;;;5.75;;
54271;SDS011;40184;53.362;5.216;2023-04-15T01:26:45;17.20;;;7.80;;
54271;SDS011;40184;53.362;5.216;2023-04-15T01:29:12;17.67;;;6.72;;
54271;SDS011;40184;53.362;5.216;2023-04-15T01:31:39;19.05;;;6.80;;
54271;SDS011;40184;53.362;5.216;2023-04-15T01:34:05;13.75;;;7.20;;
54271;SDS011;40184;53.362;5.216;2023-04-15T01:36:31;16.70;;;7.38;;
54271;SDS011;40184;53.362;5.216;2023-04-15T01:38:57;17.55;;;7.82;;
54271;SDS011;40184;53.362;5.216;2023-04-15T01:41:26;15.63;;;8.50;;
54271;SDS011;40184;53.362;5.216;2023-04-15T01:43:52;15.05;;;9.15;;
54271;SDS011;40184;53.362;5.216;2023-04-15T01:46:19;15.82;;;9.73;;
54271;SDS011;40184;53.362;5.216;2023-04-15T01:48:45;18.02;;;9.65;;
54271;SDS011;40184;53.362;5.216;2023-04-15T01:51:10;13.25;;;9.85;;
54271;SDS011;40184;53.362;5.216;2023-04-15T01:53:36;15.02;;;9.55;;
54271;SDS011;40184;53.362;5.216;2023-04-15T01:56:02;20.70;;;11.45;;
54271;SDS011;40184;53.362;5.216;2023-04-15T01:58:28;16.45;;;10.38;;
54271;SDS011;40184;53.362;5.216;2023-04-15T02:00:54;24.55;;;11.52;;
54271;SDS011;40184;53.362;5.216;2023-04-15T02:03:20;18.60;;;11.35;;
54271;SDS011;40184;53.362;5.216;2023-04-15T02:05:46;18.25;;;11.63;;
54271;SDS011;40184;53.362;5.216;2023-04-15T02:08:11;30.42;;;12.93;;
54271;SDS011;40184;53.362;5.216;2023-04-15T02:10:37;29.25;;;13.40;;
54271;SDS011;40184;53.362;5.216;2023-04-15T02:13:03;21.88;;;12.68;;
54271;SDS011;40184;53.362;5.216;2023-04-15T02:15:29;18.38;;;12.95;;
54271;SDS011;40184;53.362;5.216;2023-04-15T02:17:55;21.75;;;14.25;;
54271;SDS011;40184;53.362;5.216;2023-04-15T02:20:21;21.70;;;12.65;;
54271;SDS011;40184;53.362;5.216;2023-04-15T02:22:47;21.08;;;13.85;;
54271;SDS011;40184;53.362;5.216;2023-04-15T02:25:13;21.75;;;14.23;;
54271;SDS011;40184;53.362;5.216;2023-04-15T02:27:41;21.67;;;13.80;;
54271;SDS011;40184;53.362;5.216;2023-04-15T02:30:07;31.42;;;17.08;;
54271;SDS011;40184;53.362;5.216;2023-04-15T02:32:33;28.38;;;15.35;;
54271;SDS011;40184;53.362;5.216;2023-04-15T02:35:02;21.60;;;14.02;;
54271;SDS011;40184;53.362;5.216;2023-04-15T02:37:29;27.67;;;15.18;;
54271;SDS011;40184;53.362;5.216;2023-04-15T02:39:56;22.75;;;15.15;;
54271;SDS011;40184;53.362;5.216;2023-04-15T02:42:21;26.63;;;15.90;;
54271;SDS011;40184;53.362;5.216;2023-04-15T02:44:47;25.40;;;15.15;;
54271;SDS011;40184;53.362;5.216;2023-04-15T02:47:13;23.45;;;16.08;;
54271;SDS011;40184;53.362;5.216;2023-04-15T02:49:40;24.77;;;16.42;;
54271;SDS011;40184;53.362;5.216;2023-04-15T02:52:05;23.88;;;15.77;;
54271;SDS011;40184;53.362;5.216;2023-04-15T02:54:31;25.63;;;15.98;;
54271;SDS011;40184;53.362;5.216;2023-04-15T02:56:58;22.90;;;17.23;;
54271;SDS011;40184;53.362;5.216;2023-04-15T02:59:23;22.15;;;15.75;;
54271;SDS011;40184;53.362;5.216;2023-04-15T03:01:49;21.80;;;15.07;;
54271;SDS011;40184;53.362;5.216;2023-04-15T03:04:15;21.27;;;16.52;;
54271;SDS011;40184;53.362;5.216;2023-04-15T03:06:41;20.92;;;16.42;;
54271;SDS011;40184;53.362;5.216;2023-04-15T03:09:07;32.25;;;17.15;;
54271;SDS011;40184;53.362;5.216;2023-04-15T03:11:32;25.10;;;16.17;;
54271;SDS011;40184;53.362;5.216;2023-04-15T03:14:04;22.63;;;16.13;;
54271;SDS011;40184;53.362;5.216;2023-04-15T03:16:30;21.10;;;15.05;;
54271;SDS011;40184;53.362;5.216;2023-04-15T03:18:55;23.45;;;16.02;;
54271;SDS011;40184;53.362;5.216;2023-04-15T03:21:21;25.13;;;16.30;;
54271;SDS011;40184;53.362;5.216;2023-04-15T03:23:47;26.73;;;18.05;;
54271;SDS011;40184;53.362;5.216;2023-04-15T03:26:29;21.55;;;16.20;;
54271;SDS011;40184;53.362;5.216;2023-04-15T03:28:55;26.27;;;16.25;;
54271;SDS011;40184;53.362;5.216;2023-04-15T03:31:22;19.52;;;15.85;;
54271;SDS011;40184;53.362;5.216;2023-04-15T03:33:47;20.80;;;15.60;;
54271;SDS011;40184;53.362;5.216;2023-04-15T03:36:13;22.48;;;15.98;;
54271;SDS011;40184;53.362;5.216;2023-04-15T03:38:40;25.35;;;15.80;;
54271;SDS011;40184;53.362;5.216;2023-04-15T03:41:05;20.63;;;14.90;;
54271;SDS011;40184;53.362;5.216;2023-04-15T03:43:31;19.10;;;14.75;;
54271;SDS011;40184;53.362;5.216;2023-04-15T03:45:57;22.50;;;14.98;;
54271;SDS011;40184;53.362;5.216;2023-04-15T03:48:23;21.00;;;14.38;;
54271;SDS011;40184;53.362;5.216;2023-04-15T03:50:48;19.05;;;14.98;;
54271;SDS011;40184;53.362;5.216;2023-04-15T03:53:14;19.55;;;14.20;;
54271;SDS011;40184;53.362;5.216;2023-04-15T03:55:40;15.85;;;13.10;;
54271;SDS011;40184;53.362;5.216;2023-04-15T03:58:05;21.48;;;13.95;;
54271;SDS011;40184;53.362;5.216;2023-04-15T04:00:31;17.52;;;12.82;;
54271;SDS011;40184;53.362;5.216;2023-04-15T04:02:57;19.30;;;13.77;;
54271;SDS011;40184;53.362;5.216;2023-04-15T04:05:22;15.73;;;12.95;;
54271;SDS011;40184;53.362;5.216;2023-04-15T04:07:48;19.75;;;12.68;;
54271;SDS011;40184;53.362;5.216;2023-04-15T04:10:14;18.85;;;13.77;;
54271;SDS011;40184;53.362;5.216;2023-04-15T04:12:40;14.50;;;11.07;;
54271;SDS011;40184;53.362;5.216;2023-04-15T04:15:06;18.10;;;12.88;;
54271;SDS011;40184;53.362;5.216;2023-04-15T04:17:32;16.35;;;12.18;;
54271;SDS011;40184;53.362;5.216;2023-04-15T04:19:58;15.60;;;11.68;;
54271;SDS011;40184;53.362;5.216;2023-04-15T04:22:23;12.82;;;11.13;;
54271;SDS011;40184;53.362;5.216;2023-04-15T04:24:49;15.02;;;11.93;;
54271;SDS011;40184;53.362;5.216;2023-04-15T04:27:15;14.52;;;11.07;;
54271;SDS011;40184;53.362;5.216;2023-04-15T04:29:41;13.68;;;10.52;;
54271;SDS011;40184;53.362;5.216;2023-04-15T04:32:07;16.55;;;10.32;;
54271;SDS011;40184;53.362;5.216;2023-04-15T04:34:32;16.52;;;10.63;;
54271;SDS011;40184;53.362;5.216;2023-04-15T04:36:58;13.25;;;11.13;;
54271;SDS011;40184;53.362;5.216;2023-04-15T04:39:24;16.23;;;11.55;;
54271;SDS011;40184;53.362;5.216;2023-04-15T04:41:49;16.67;;;12.05;;
54271;SDS011;40184;53.362;5.216;2023-04-15T04:44:16;20.40;;;12.43;;
54271;SDS011;40184;53.362;5.216;2023-04-15T04:46:42;24.55;;;12.23;;
54271;SDS011;40184;53.362;5.216;2023-04-15T04:49:08;14.77;;;13.10;;
54271;SDS011;40184;53.362;5.216;2023-04-15T04:51:33;19.80;;;13.77;;
54271;SDS011;40184;53.362;5.216;2023-04-15T04:53:59;18.25;;;14.30;;
54271;SDS011;40184;53.362;5.216;2023-04-15T04:56:25;18.83;;;13.50;;
54271;SDS011;40184;53.362;5.216;2023-04-15T04:58:51;21.50;;;14.93;;
54271;SDS011;40184;53.362;5.216;2023-04-15T05:01:17;24.00;;;16.17;;
54271;SDS011;40184;53.362;5.216;2023-04-15T05:03:42;25.35;;;14.52;;
54271;SDS011;40184;53.362;5.216;2023-04-15T05:06:08;25.67;;;15.25;;
54271;SDS011;40184;53.362;5.216;2023-04-15T05:08:34;19.95;;;14.63;;
54271;SDS011;40184;53.362;5.216;2023-04-15T05:11:01;19.13;;;14.38;;
54271;SDS011;40184;53.362;5.216;2023-04-15T05:13:27;21.75;;;14.35;;
54271;SDS011;40184;53.362;5.216;2023-04-15T05:15:54;19.73;;;14.77;;
54271;SDS011;40184;53.362;5.216;2023-04-15T05:18:20;22.02;;;14.65;;
54271;SDS011;40184;53.362;5.216;2023-04-15T05:20:45;21.85;;;14.65;;
54271;SDS011;40184;53.362;5.216;2023-04-15T05:23:11;19.05;;;14.48;;
54271;SDS011;40184;53.362;5.216;2023-04-15T05:25:37;17.20;;;13.85;;
54271;SDS011;40184;53.362;5.216;2023-04-15T05:28:02;19.95;;;13.90;;
54271;SDS011;40184;53.362;5.216;2023-04-15T05:30:28;22.27;;;14.00;;
54271;SDS011;40184;53.362;5.216;2023-04-15T05:32:54;16.73;;;12.35;;
54271;SDS011;40184;53.362;5.216;2023-04-15T05:35:20;18.15;;;10.45;;
54271;SDS011;40184;53.362;5.216;2023-04-15T05:37:45;14.48;;;10.25;;
54271;SDS011;40184;53.362;5.216;2023-04-15T05:40:11;16.42;;;10.88;;
54271;SDS011;40184;53.362;5.216;2023-04-15T05:42:37;10.68;;;7.32;;
54271;SDS011;40184;53.362;5.216;2023-04-15T05:45:03;10.85;;;7.78;;
54271;SDS011;40184;53.362;5.216;2023-04-15T05:47:33;14.98;;;7.68;;
54271;SDS011;40184;53.362;5.216;2023-04-15T05:50:02;7.40;;;6.38;;
54271;SDS011;40184;53.362;5.216;2023-04-15T05:52:29;8.25;;;6.18;;
54271;SDS011;40184;53.362;5.216;2023-04-15T05:54:55;8.90;;;4.47;;
54271;SDS011;40184;53.362;5.216;2023-04-15T05:57:21;7.78;;;4.13;;
54271;SDS011;40184;53.362;5.216;2023-04-15T05:59:47;4.75;;;3.25;;
54271;SDS011;40184;53.362;5.216;2023-04-15T06:02:13;7.63;;;3.70;;
54271;SDS011;40184;53.362;5.216;2023-04-15T06:04:39;6.53;;;3.63;;
54271;SDS011;40184;53.362;5.216;2023-04-15T06:07:05;9.13;;;3.20;;
54271;SDS011;40184;53.362;5.216;2023-04-15T06:09:30;12.20;;;3.80;;
54271;SDS011;40184;53.362;5.216;2023-04-15T06:11:56;5.15;;;2.45;;
54271;SDS011;40184;53.362;5.216;2023-04-15T06:14:23;6.93;;;3.00;;
54271;SDS011;40184;53.362;5.216;2023-04-15T06:16:48;8.73;;;3.10;;
54271;SDS011;40184;53.362;5.216;2023-04-15T06:19:14;2.88;;;2.35;;
54271;SDS011;40184;53.362;5.216;2023-04-15T06:21:40;7.95;;;2.97;;
54271;SDS011;40184;53.362;5.216;2023-04-15T06:24:06;9.45;;;3.15;;
54271;SDS011;40184;53.362;5.216;2023-04-15T06:26:31;7.18;;;3.08;;
54271;SDS011;40184;53.362;5.216;2023-04-15T06:28:57;7.82;;;3.65;;
54271;SDS011;40184;53.362;5.216;2023-04-15T06:31:23;4.03;;;3.60;;
54271;SDS011;40184;53.362;5.216;2023-04-15T06:33:48;9.43;;;3.80;;
54271;SDS011;40184;53.362;5.216;2023-04-15T06:36:14;9.10;;;4.47;;
54271;SDS011;40184;53.362;5.216;2023-04-15T06:38:40;7.35;;;4.28;;
54271;SDS011;40184;53.362;5.216;2023-04-15T06:41:06;6.53;;;5.75;;
54271;SDS011;40184;53.362;5.216;2023-04-15T06:43:31;6.00;;;5.10;;
54271;SDS011;40184;53.362;5.216;2023-04-15T06:45:57;8.95;;;5.20;;
54271;SDS011;40184;53.362;5.216;2023-04-15T06:48:23;10.52;;;5.43;;
54271;SDS011;40184;53.362;5.216;2023-04-15T06:50:49;9.55;;;6.00;;
54271;SDS011;40184;53.362;5.216;2023-04-15T06:53:15;7.82;;;5.72;;
54271;SDS011;40184;53.362;5.216;2023-04-15T06:55:40;9.32;;;6.15;;
54271;SDS011;40184;53.362;5.216;2023-04-15T06:58:06;9.38;;;6.95;;
54271;SDS011;40184;53.362;5.216;2023-04-15T07:00:32;11.50;;;7.50;;
54271;SDS011;40184;53.362;5.216;2023-04-15T07:02:58;11.38;;;6.57;;
54271;SDS011;40184;53.362;5.216;2023-04-15T07:05:27;11.43;;;7.30;;
54271;SDS011;40184;53.362;5.216;2023-04-15T07:07:54;12.13;;;6.88;;
54271;SDS011;40184;53.362;5.216;2023-04-15T07:10:20;11.55;;;6.78;;
54271;SDS011;40184;53.362;5.216;2023-04-15T07:12:46;11.50;;;6.72;;
54271;SDS011;40184;53.362;5.216;2023-04-15T07:15:12;12.52;;;6.97;;
54271;SDS011;40184;53.362;5.216;2023-04-15T07:17:38;8.45;;;6.13;;
54271;SDS011;40184;53.362;5.216;2023-04-15T07:20:05;6.75;;;5.90;;
54271;SDS011;40184;53.362;5.216;2023-04-15T07:22:32;9.60;;;6.35;;
54271;SDS011;40184;53.362;5.216;2023-04-15T07:24:58;11.50;;;6.95;;
54271;SDS011;40184;53.362;5.216;2023-04-15T07:27:23;14.80;;;6.07;;
54271;SDS011;40184;53.362;5.216;2023-04-15T07:29:50;9.18;;;6.55;;
54271;SDS011;40184;53.362;5.216;2023-04-15T07:32:16;8.93;;;7.40;;
54271;SDS011;40184;53.362;5.216;2023-04-15T07:34:42;12.52;;;8.07;;
54271;SDS011;40184;53.362;5.216;2023-04-15T07:37:08;9.57;;;8.45;;
54271;SDS011;40184;53.362;5.216;2023-04-15T07:39:34;10.35;;;9.05;;
54271;SDS011;40184;53.362;5.216;2023-04-15T07:42:01;13.93;;;8.63;;
54271;SDS011;40184;53.362;5.216;2023-04-15T07:44:27;10.85;;;8.65;;
54271;SDS011;40184;53.362;5.216;2023-04-15T07:46:54;13.98;;;9.38;;
54271;SDS011;40184;53.362;5.216;2023-04-15T07:49:20;10.20;;;7.95;;
54271;SDS011;40184;53.362;5.216;2023-04-15T07:51:46;9.55;;;7.78;;
54271;SDS011;40184;53.362;5.216;2023-04-15T07:54:13;11.98;;;8.48;;
54271;SDS011;40184;53.362;5.216;2023-04-15T07:56:39;13.07;;;8.35;;
54271;SDS011;40184;53.362;5.216;2023-04-15T07:59:05;11.70;;;7.57;;
54271;SDS011;40184;53.362;5.216;2023-04-15T08:01:31;12.07;;;8.13;;
54271;SDS011;40184;53.362;5.216;2023-04-15T08:03:57;14.20;;;8.55;;
54271;SDS011;40184;53.362;5.216;2023-04-15T08:06:23;16.33;;;7.55;;
54271;SDS011;40184;53.362;5.216;2023-04-15T08:08:49;11.20;;;7.75;;
54271;SDS011;40184;53.362;5.216;2023-04-15T08:11:15;16.45;;;8.32;;
54271;SDS011;40184;53.362;5.216;2023-04-15T08:13:41;14.57;;;7.47;;
54271;SDS011;40184;53.362;5.216;2023-04-15T08:16:17;13.40;;;8.50;;
54271;SDS011;40184;53.362;5.216;2023-04-15T08:18:45;12.57;;;8.18;;
54271;SDS011;40184;53.362;5.216;2023-04-15T08:21:11;8.95;;;7.00;;
54271;SDS011;40184;53.362;5.216;2023-04-15T08:23:37;10.95;;;6.65;;
54271;SDS011;40184;53.362;5.216;2023-04-15T08:26:03;11.80;;;7.20;;
54271;SDS011;40184;53.362;5.216;2023-04-15T08:28:29;7.80;;;4.88;;
54271;SDS011;40184;53.362;5.216;2023-04-15T08:30:55;17.73;;;5.70;;
54271;SDS011;40184;53.362;5.216;2023-04-15T08:33:21;8.25;;;4.80;;
54271;SDS011;40184;53.362;5.216;2023-04-15T08:35:48;8.73;;;5.57;;
54271;SDS011;40184;53.362;5.216;2023-04-15T08:38:14;6.47;;;4.30;;
54271;SDS011;40184;53.362;5.216;2023-04-15T08:40:40;9.57;;;5.63;;
54271;SDS011;40184;53.362;5.216;2023-04-15T08:43:09;7.10;;;4.25;;
54271;SDS011;40184;53.362;5.216;2023-04-15T08:45:44;8.63;;;4.72;;
54271;SDS011;40184;53.362;5.216;2023-04-15T08:48:13;5.70;;;4.38;;
54271;SDS011;40184;53.362;5.216;2023-04-15T08:50:43;14.43;;;5.35;;
54271;SDS011;40184;53.362;5.216;2023-04-15T08:53:10;6.95;;;4.47;;
54271;SDS011;40184;53.362;5.216;2023-04-15T08:55:37;7.93;;;4.25;;
54271;SDS011;40184;53.362;5.216;2023-04-15T08:58:07;9.48;;;3.75;;
54271;SDS011;40184;53.362;5.216;2023-04-15T09:00:33;7.30;;;3.95;;
54271;SDS011;40184;53.362;5.216;2023-04-15T09:02:59;7.65;;;4.07;;
54271;SDS011;40184;53.362;5.216;2023-04-15T09:05:26;6.63;;;4.57;;
54271;SDS011;40184;53.362;5.216;2023-04-15T09:07:55;8.13;;;4.53;;
54271;SDS011;40184;53.362;5.216;2023-04-15T09:10:20;9.60;;;4.85;;
54271;SDS011;40184;53.362;5.216;2023-04-15T09:12:46;14.23;;;5.57;;
54271;SDS011;40184;53.362;5.216;2023-04-15T09:15:12;7.07;;;4.47;;
54271;SDS011;40184;53.362;5.216;2023-04-15T09:17:42;8.90;;;5.80;;
54271;SDS011;40184;53.362;5.216;2023-04-15T09:20:14;7.78;;;5.00;;
54271;SDS011;40184;53.362;5.216;2023-04-15T09:22:44;10.68;;;5.35;;
54271;SDS011;40184;53.362;5.216;2023-04-15T09:27:50;8.55;;;4.97;;
54271;SDS011;40184;53.362;5.216;2023-04-15T09:30:16;5.85;;;4.72;;
54271;SDS011;40184;53.362;5.216;2023-04-15T09:32:49;9.50;;;4.53;;
54271;SDS011;40184;53.362;5.216;2023-04-15T09:35:19;6.60;;;4.28;;
54271;SDS011;40184;53.362;5.216;2023-04-15T09:37:45;8.88;;;4.72;;
54271;SDS011;40184;53.362;5.216;2023-04-15T09:40:11;10.70;;;4.90;;
54271;SDS011;40184;53.362;5.216;2023-04-15T09:43:11;10.15;;;5.05;;
54271;SDS011;40184;53.362;5.216;2023-04-15T09:45:30;7.07;;;4.13;;
54271;SDS011;40184;53.362;5.216;2023-04-15T09:48:14;10.32;;;5.47;;
54271;SDS011;40184;53.362;5.216;2023-04-15T09:50:41;10.20;;;5.20;;
54271;SDS011;40184;53.362;5.216;2023-04-15T09:53:14;13.27;;;5.72;;
54271;SDS011;40184;53.362;5.216;2023-04-15T09:55:44;11.52;;;5.13;;
54271;SDS011;40184;53.362;5.216;2023-04-15T10:00:46;11.15;;;5.28;;
54271;SDS011;40184;53.362;5.216;2023-04-15T10:03:14;9.82;;;4.22;;
54271;SDS011;40184;53.362;5.216;2023-04-15T10:05:53;18.27;;;5.15;;
54271;SDS011;40184;53.362;5.216;2023-04-15T10:08:23;7.47;;;4.00;;
54271;SDS011;40184;53.362;5.216;2023-04-15T10:10:50;9.07;;;4.28;;
54271;SDS011;40184;53.362;5.216;2023-04-15T10:13:20;8.38;;;3.80;;
54271;SDS011;40184;53.362;5.216;2023-04-15T10:15:53;5.10;;;3.38;;
54271;SDS011;40184;53.362;5.216;2023-04-15T10:18:25;9.50;;;5.80;;
54271;SDS011;40184;53.362;5.216;2023-04-15T10:20:52;10.45;;;3.92;;
54271;SDS011;40184;53.362;5.216;2023-04-15T10:23:19;12.00;;;4.10;;
54271;SDS011;40184;53.362;5.216;2023-04-15T10:25:45;8.63;;;3.47;;
54271;SDS011;40184;53.362;5.216;2023-04-15T10:28:14;7.70;;;3.20;;
54271;SDS011;40184;53.362;5.216;2023-04-15T10:30:40;7.85;;;3.47;;
54271;SDS011;40184;53.362;5.216;2023-04-15T10:33:07;11.25;;;4.05;;
54271;SDS011;40184;53.362;5.216;2023-04-15T10:35:35;7.60;;;3.45;;
54271;SDS011;40184;53.362;5.216;2023-04-15T10:38:01;11.18;;;3.78;;
54271;SDS011;40184;53.362;5.216;2023-04-15T10:40:30;6.05;;;3.47;;
54271;SDS011;40184;53.362;5.216;2023-04-15T10:43:01;9.95;;;2.70;;
54271;SDS011;40184;53.362;5.216;2023-04-15T10:45:27;6.68;;;2.47;;
54271;SDS011;40184;53.362;5.216;2023-04-15T10:47:57;6.13;;;2.88;;
54271;SDS011;40184;53.362;5.216;2023-04-15T10:50:26;5.32;;;2.90;;
54271;SDS011;40184;53.362;5.216;2023-04-15T10:52:54;7.75;;;3.05;;
54271;SDS011;40184;53.362;5.216;2023-04-15T10:55:25;6.22;;;2.17;;
54271;SDS011;40184;53.362;5.216;2023-04-15T10:57:59;8.25;;;2.88;;
54271;SDS011;40184;53.362;5.216;2023-04-15T11:00:27;7.22;;;3.35;;
54271;SDS011;40184;53.362;5.216;2023-04-15T11:02:55;4.25;;;1.83;;
54271;SDS011;40184;53.362;5.216;2023-04-15T11:08:05;7.72;;;2.05;;
54271;SDS011;40184;53.362;5.216;2023-04-15T11:12:59;9.63;;;1.92;;
54271;SDS011;40184;53.362;5.216;2023-04-15T11:15:33;12.32;;;2.83;;
54271;SDS011;40184;53.362;5.216;2023-04-15T11:18:08;9.40;;;2.53;;
54271;SDS011;40184;53.362;5.216;2023-04-15T11:20:34;5.57;;;1.98;;
54271;SDS011;40184;53.362;5.216;2023-04-15T11:23:00;3.70;;;1.75;;
54271;SDS011;40184;53.362;5.216;2023-04-15T11:25:27;8.23;;;2.30;;
54271;SDS011;40184;53.362;5.216;2023-04-15T11:27:53;4.25;;;1.25;;
54271;SDS011;40184;53.362;5.216;2023-04-15T11:30:23;5.70;;;1.42;;
54271;SDS011;40184;53.362;5.216;2023-04-15T11:32:51;6.97;;;1.85;;
54271;SDS011;40184;53.362;5.216;2023-04-15T11:35:18;8.05;;;2.47;;
54271;SDS011;40184;53.362;5.216;2023-04-15T11:37:44;25.75;;;2.45;;
54271;SDS011;40184;53.362;5.216;2023-04-15T11:40:10;7.75;;;1.63;;
54271;SDS011;40184;53.362;5.216;2023-04-15T11:42:37;9.32;;;1.98;;
54271;SDS011;40184;53.362;5.216;2023-04-15T11:45:10;8.75;;;2.15;;
54271;SDS011;40184;53.362;5.216;2023-04-15T11:47:37;11.07;;;2.05;;
54271;SDS011;40184;53.362;5.216;2023-04-15T11:50:12;6.80;;;2.10;;
54271;SDS011;40184;53.362;5.216;2023-04-15T11:52:38;10.93;;;2.30;;
54271;SDS011;40184;53.362;5.216;2023-04-15T11:55:05;6.90;;;1.70;;
54271;SDS011;40184;53.362;5.216;2023-04-15T11:57:33;7.07;;;2.95;;
54271;SDS011;40184;53.362;5.216;2023-04-15T11:59:59;10.75;;;3.35;;
54271;SDS011;40184;53.362;5.216;2023-04-15T12:02:29;13.23;;;1.63;;
54271;SDS011;40184;53.362;5.216;2023-04-15T12:05:05;7.53;;;2.00;;
54271;SDS011;40184;53.362;5.216;2023-04-15T12:07:31;10.15;;;2.03;;
54271;SDS011;40184;53.362;5.216;2023-04-15T12:09:57;12.80;;;2.75;;
54271;SDS011;40184;53.362;5.216;2023-04-15T12:12:26;5.53;;;1.60;;
54271;SDS011;40184;53.362;5.216;2023-04-15T12:14:52;9.05;;;1.65;;
54271;SDS011;40184;53.362;5.216;2023-04-15T12:17:20;5.30;;;1.50;;
54271;SDS011;40184;53.362;5.216;2023-04-15T12:19:48;9.55;;;2.08;;
54271;SDS011;40184;53.362;5.216;2023-04-15T12:22:20;6.85;;;1.40;;
54271;SDS011;40184;53.362;5.216;2023-04-15T12:24:46;7.05;;;2.00;;
54271;SDS011;40184;53.362;5.216;2023-04-15T12:27:14;11.77;;;2.78;;
54271;SDS011;40184;53.362;5.216;2023-04-15T12:29:40;14.35;;;2.40;;
54271;SDS011;40184;53.362;5.216;2023-04-15T12:32:13;10.05;;;2.10;;
54271;SDS011;40184;53.362;5.216;2023-04-15T12:37:09;7.70;;;2.15;;
54271;SDS011;40184;53.362;5.216;2023-04-15T12:39:37;11.50;;;2.33;;
54271;SDS011;40184;53.362;5.216;2023-04-15T12:42:04;7.30;;;1.40;;
54271;SDS011;40184;53.362;5.216;2023-04-15T12:44:30;6.75;;;1.40;;
54271;SDS011;40184;53.362;5.216;2023-04-15T12:46:57;5.97;;;1.30;;
54271;SDS011;40184;53.362;5.216;2023-04-15T12:49:24;6.68;;;1.90;;
54271;SDS011;40184;53.362;5.216;2023-04-15T12:51:59;10.73;;;1.90;;
54271;SDS011;40184;53.362;5.216;2023-04-15T12:54:29;10.68;;;2.60;;
54271;SDS011;40184;53.362;5.216;2023-04-15T12:56:55;9.52;;;2.47;;
54271;SDS011;40184;53.362;5.216;2023-04-15T12:59:22;13.30;;;2.63;;
54271;SDS011;40184;53.362;5.216;2023-04-15T13:01:48;12.52;;;2.40;;
54271;SDS011;40184;53.362;5.216;2023-04-15T13:04:16;14.90;;;2.08;;
54271;SDS011;40184;53.362;5.216;2023-04-15T13:06:44;12.80;;;2.50;;
54271;SDS011;40184;53.362;5.216;2023-04-15T13:09:09;11.05;;;2.20;;
54271;SDS011;40184;53.362;5.216;2023-04-15T13:11:35;14.30;;;2.30;;
54271;SDS011;40184;53.362;5.216;2023-04-15T13:14:02;8.07;;;1.83;;
54271;SDS011;40184;53.362;5.216;2023-04-15T13:16:28;12.75;;;2.63;;
54271;SDS011;40184;53.362;5.216;2023-04-15T13:18:55;11.27;;;3.00;;
54271;SDS011;40184;53.362;5.216;2023-04-15T13:21:22;10.95;;;2.50;;
54271;SDS011;40184;53.362;5.216;2023-04-15T13:23:47;16.50;;;3.25;;
54271;SDS011;40184;53.362;5.216;2023-04-15T13:26:14;12.63;;;3.22;;
54271;SDS011;40184;53.362;5.216;2023-04-15T13:28:41;12.77;;;2.40;;
54271;SDS011;40184;53.362;5.216;2023-04-15T13:31:06;15.65;;;3.22;;
54271;SDS011;40184;53.362;5.216;2023-04-15T13:33:32;14.48;;;2.72;;
54271;SDS011;40184;53.362;5.216;2023-04-15T13:35:58;16.17;;;2.90;;
54271;SDS011;40184;53.362;5.216;2023-04-15T13:38:24;12.52;;;3.20;;
54271;SDS011;40184;53.362;5.216;2023-04-15T13:40:50;7.38;;;2.03;;
54271;SDS011;40184;53.362;5.216;2023-04-15T13:43:16;14.35;;;2.17;;
54271;SDS011;40184;53.362;5.216;2023-04-15T13:45:42;8.98;;;3.22;;
54271;SDS011;40184;53.362;5.216;2023-04-15T13:48:08;27.60;;;11.68;;
54271;SDS011;40184;53.362;5.216;2023-04-15T13:50:34;18.17;;;5.55;;
54271;SDS011;40184;53.362;5.216;2023-04-15T13:53:00;15.27;;;5.13;;
54271;SDS011;40184;53.362;5.216;2023-04-15T13:55:26;10.52;;;2.63;;
54271;SDS011;40184;53.362;5.216;2023-04-15T13:57:51;15.70;;;2.88;;
54271;SDS011;40184;53.362;5.216;2023-04-15T14:00:17;19.45;;;4.03;;
54271;SDS011;40184;53.362;5.216;2023-04-15T14:02:43;9.60;;;3.30;;
54271;SDS011;40184;53.362;5.216;2023-04-15T14:05:09;9.35;;;2.40;;
54271;SDS011;40184;53.362;5.216;2023-04-15T14:07:35;22.48;;;7.75;;
54271;SDS011;40184;53.362;5.216;2023-04-15T14:10:01;22.63;;;9.15;;
54271;SDS011;40184;53.362;5.216;2023-04-15T14:12:27;10.45;;;2.17;;
54271;SDS011;40184;53.362;5.216;2023-04-15T14:14:53;8.18;;;3.60;;
54271;SDS011;40184;53.362;5.216;2023-04-15T14:17:19;10.77;;;1.75;;
54271;SDS011;40184;53.362;5.216;2023-04-15T14:19:45;13.38;;;3.10;;
54271;SDS011;40184;53.362;5.216;2023-04-15T14:22:10;9.45;;;2.85;;
54271;SDS011;40184;53.362;5.216;2023-04-15T14:24:36;18.92;;;11.38;;
54271;SDS011;40184;53.362;5.216;2023-04-15T14:27:03;23.00;;;3.50;;
54271;SDS011;40184;53.362;5.216;2023-04-15T14:29:29;9.88;;;2.80;;
54271;SDS011;40184;53.362;5.216;2023-04-15T14:31:55;9.13;;;2.08;;
54271;SDS011;40184;53.362;5.216;2023-04-15T14:34:22;13.35;;;2.25;;
54271;SDS011;40184;53.362;5.216;2023-04-15T14:36:49;20.10;;;3.35;;
54271;SDS011;40184;53.362;5.216;2023-04-15T14:39:18;13.13;;;2.88;;
54271;SDS011;40184;53.362;5.216;2023-04-15T14:41:45;13.90;;;3.05;;
54271;SDS011;40184;53.362;5.216;2023-04-15T14:44:11;8.50;;;2.25;;
54271;SDS011;40184;53.362;5.216;2023-04-15T14:46:37;13.82;;;1.98;;